WFLO2: Webbers Falls Lock & Dam & Reservoir (L&D 16)

Data processed at Fri Dec 08 2017 23:31


All information presented herein is the property of the government of the United States of America and may be revised or deleted at any time without prior notice.
Dissemination of this information without the expressed written consent of the Public Affairs Office, Tulsa District U.S. Army Corps of Engineers is strictly prohibited.
These data are gathered electronically and, as presented, have not undergone any form of quality control. These data are not guaranteed to be valid or correct.
Go to home page.
Go to station list.

Upstream stations:

Downstream station:
Previous Day
Next Day
Current Day
    
SHEF ID:       WFLO2     Webbers Falls Lock & Dam
STATION TYPE:  NAVIGATION LOCK
Normal Pool:  Bottom =   487.00, Top =   490.00

               PRECIP ELEVATION   STORAGE   TW-ELEV    INFLOW   RELEASE  AIR-TEMP  WIND-DIRWIND-SPEED REL-HUMID SOLAR-RAD   VOLTAGE  BAT-LOAD
                   in        ft     ac-ft        ft       cfs       cfs         F       deg       mph         %      W/m2      volt      volt
              Ccp-Rev   Ccp-Rev   Ccp-Rev   Ccp-Rev  Regi-Rev  Regi-Rev   Ccp-Rev   Ccp-Rev   Ccp-Rev   Ccp-Rev   Ccp-Rev   Ccp-Rev   Ccp-Rev
(US/Central)
12/06 00:00      0.00    489.59    165448    459.93      3210         0     27.41     88.10      1.20     72.57      0.00     13.50     13.29
12/06 01:00      0.00    489.50    164425    459.87       183         0     27.18    112.70      1.50     75.05      0.00     13.50     13.29
12/06 02:00      0.00    489.50    164425    459.65       367         0     26.19    120.10      1.80     79.51      0.00     13.50     13.29
12/06 03:00      0.00    489.54    164880    459.70       389         0     25.84     57.70      1.70     82.38      0.00     13.50     13.29
12/06 04:00      0.00    489.57    165221    459.73       411         0     25.21     95.80      1.20     83.05      0.00     13.50     13.29
12/06 05:00      0.00    489.57    165221    459.75       433         0     25.93     99.70      2.90     85.57      0.00     13.51     13.29
12/06 06:00      0.00    489.51    164539    459.94       408         0     26.13    124.90      2.20     86.99      0.00     13.51     13.29
12/06 07:00      0.00    489.34    162606    460.16      3526      9240     25.00    119.90      1.30     89.34      0.00     13.51     13.29
12/06 08:00      0.00    489.32    162378    460.00      6256     18480     24.10     81.20      1.20     88.43      0.60     13.51     13.29
12/06 09:00      0.00    489.44    163743    459.46      8557         0     28.65    117.00      2.00     86.87    155.10     13.51     13.29
12/06 10:00      0.00    489.54    164880    459.46      8535         0     34.90    152.00      2.40     74.95    359.10     13.51     13.29
12/06 11:00      0.00    489.64    166017    459.77      8377         0     39.88    336.20      3.90     52.99    500.90     13.51     13.29
12/06 12:00      0.00    489.66    166244    459.79      5125         0     42.75    323.50      4.90     45.74    596.70     13.51     13.29
12/06 13:00      0.00    489.66    166244    459.78      2420         0     46.42    317.00      3.90     40.71    606.40     13.51     13.05
12/06 14:00      0.00    489.60    165562    459.59       144         0     50.56    336.10      6.70     33.44    559.70     13.51     13.29
12/06 15:00      0.00    489.62    165789    459.51       144         0     52.14    341.80      7.10     29.36    451.20     13.51     13.29
12/06 16:00      0.00    489.63    165903    459.58       144         0     51.96    329.10      9.00     31.54    251.90     13.51     13.29
12/06 17:00      0.00    489.57    165221    459.78        94         0     51.66    327.70      7.20     33.96     58.00     13.51     13.29
12/06 18:00      0.00    489.50    164425    459.61      1378      8950     48.04    351.70      2.00     39.01      0.00     13.51     13.29
12/06 19:00      0.00    489.50    164425    459.64      5184      8950     42.57      9.40      0.90     50.24      0.00     13.51     13.29
12/06 20:00      0.00    489.54    164880    459.43      7660         0     41.52    357.30      2.10     60.65      0.00     13.51     13.29
12/06 21:00      0.00    489.68    166472    459.47      7798         0     40.10    349.90      1.80     68.15      0.00     13.51     13.29
12/06 22:00      0.00    489.77    167495    459.60      7935         0     37.56      0.30      2.50     76.80      0.00     13.51     13.29
12/06 23:00      0.00    489.80    167836    459.57      6604         0     36.82    356.40      2.50     79.18      0.00     13.51     13.29